KFKL

Venango Regional Airport

Franklin, Pennsylvania, USA
KFKL 241736Z 2418/2518 14012KT P6SM BKN015 FM242100 14012KT 5SM -SHRA OVC015 FM250000 14012KT P6SM -SHRA OVC015 WS020/15045KT FM250400 14012KT 3SM -SHRA OVC008 WS020/16045KT FM251200 17010KT P6SM VCSH OVC008 FM251600 18010KT P6SM VCSH BKN015
Issued Valid From Valid To
Sep-24 @ 17:36 UTC
(2 hours ago)
Sep-24 @ 18:00 UTC
(an hour ago)
Sep-25 @ 18:00 UTC
(in 23 hours)
Sep-24 @ 18:00 to Sep-24 @ 21:00
KFKL 241736Z 2418/2518 14012KT P6SM BKN015
Wind Visibility Clouds
140° at 12 knots Greater than 6 miles
  • Broken at 1,500' AGL
From Sep-24 @ 21:00 to Sep-25 @ 00:00
FM242100 14012KT 5SM -SHRA OVC015
Wind Visibility Clouds Conditions
140° at 12 knots 5 miles
  • Overcast at 1,500' AGL
  • Light Rain
From Sep-25 @ 00:00 to Sep-25 @ 04:00
FM250000 14012KT P6SM -SHRA OVC015 WS020/15045KT
Wind Visibility Clouds Conditions
140° at 12 knots
 Wind shear 2,000' AGL from 150° at 45 knots
Greater than 6 miles
  • Overcast at 1,500' AGL
  • Light Rain
From Sep-25 @ 04:00 to Sep-25 @ 12:00
FM250400 14012KT 3SM -SHRA OVC008 WS020/16045KT
Wind Visibility Clouds Conditions
140° at 12 knots
 Wind shear 2,000' AGL from 160° at 45 knots
3 miles
  • Overcast at 800' AGL
  • Light Rain
From Sep-25 @ 12:00 to Sep-25 @ 16:00
FM251200 17010KT P6SM VCSH OVC008
Wind Visibility Clouds
170° at 10 knots Greater than 6 miles
  • Overcast at 800' AGL
From Sep-25 @ 16:00 to Sep-25 @ 18:00
FM251600 18010KT P6SM VCSH BKN015
Wind Visibility Clouds
180° at 10 knots Greater than 6 miles
  • Broken at 1,500' AGL
KFKL 241736Z 2418/2518 14012KT P6SM BKN015 FM242100 14012KT 5SM -SHRA OVC015 FM250000 14012KT P6SM -SHRA OVC015 WS020/15045KT FM250400 14012KT 3SM -SHRA OVC008 WS020/16045KT FM251200 17010KT P6SM VCSH OVC008 FM251600 18010KT P6SM VCSH BKN015
Issued Sep-24 @ 17:36 UTC
(2 hours ago)
Valid From Sep-24 @ 18:00 UTC
(an hour ago)
Valid To Sep-25 @ 18:00 UTC
(in 23 hours)
Sep-24 @ 18:00 - Sep-24 @ 21:00
Wind Visibility
140° at 12 knots Greater than 6 miles
Clouds
  • Broken at 1,500' AGL
From Sep-24 @ 21:00 - Sep-25 @ 00:00
Wind Visibility
140° at 12 knots 5 miles
Clouds
  • Overcast at 1,500' AGL
Conditions
  • Light Rain
From Sep-25 @ 00:00 - Sep-25 @ 04:00
Wind Visibility
140° at 12 knots Greater than 6 miles
Clouds
  • Overcast at 1,500' AGL
Conditions
  • Light Rain
From Sep-25 @ 04:00 - Sep-25 @ 12:00
Wind Visibility
140° at 12 knots 3 miles
Clouds
  • Overcast at 800' AGL
Conditions
  • Light Rain
From Sep-25 @ 12:00 - Sep-25 @ 16:00
Wind Visibility
170° at 10 knots Greater than 6 miles
Clouds
  • Overcast at 800' AGL
From Sep-25 @ 16:00 - Sep-25 @ 18:00
Wind Visibility
180° at 10 knots Greater than 6 miles
Clouds
  • Broken at 1,500' AGL